createdAt,value
2022-11-20T00:01:42.953Z,100.00
2022-11-20T00:04:10.819Z,100.00
2022-11-20T00:06:38.676Z,100.00
2022-11-20T00:09:07.448Z,100.00
2022-11-20T00:11:35.219Z,100.00
2022-11-20T00:14:03.429Z,100.00
2022-11-20T00:16:33.237Z,100.00
2022-11-20T00:19:01.049Z,100.00
2022-11-20T00:21:29.365Z,100.00
2022-11-20T00:23:57.979Z,100.00
2022-11-20T00:26:26.852Z,100.00
2022-11-20T00:28:56.579Z,100.00
2022-11-20T00:31:24.331Z,100.00
2022-11-20T00:33:52.001Z,100.00
2022-11-20T00:36:21.247Z,100.00
2022-11-20T00:38:49.052Z,100.00
2022-11-20T00:41:17.445Z,100.00
2022-11-20T00:43:45.300Z,100.00
2022-11-20T00:46:15.958Z,100.00
2022-11-20T00:48:44.141Z,100.00
2022-11-20T00:51:12.858Z,100.00
2022-11-20T00:53:40.746Z,100.00
2022-11-20T00:56:09.854Z,100.00
2022-11-20T00:58:39.319Z,100.00
2022-11-20T01:01:08.790Z,100.00
2022-11-20T01:03:38.455Z,100.00
2022-11-20T01:06:11.956Z,100.00
2022-11-20T01:08:39.850Z,100.00
2022-11-20T01:11:12.522Z,100.00
2022-11-20T01:13:40.541Z,100.00
2022-11-20T01:16:10.979Z,100.00
2022-11-20T01:18:39.800Z,100.00
2022-11-20T01:21:09.930Z,100.00
2022-11-20T01:23:40.043Z,100.00
2022-11-20T01:26:10.027Z,100.00
2022-11-20T01:28:37.916Z,100.00
2022-11-20T01:31:26.706Z,100.00
2022-11-20T01:33:56.453Z,100.00
2022-11-20T01:36:25.108Z,100.00
2022-11-20T01:39:03.758Z,100.00
2022-11-20T01:41:51.065Z,100.00
2022-11-20T01:44:20.812Z,100.00
2022-11-20T01:46:58.585Z,100.00
2022-11-20T01:49:56.637Z,100.00
2022-11-20T01:52:26.778Z,100.00
2022-11-20T01:54:59.147Z,100.00
2022-11-20T01:57:26.963Z,100.00
2022-11-20T01:59:58.514Z,100.00
2022-11-20T02:02:26.336Z,100.00
2022-11-20T02:04:54.184Z,100.00
2022-11-20T02:07:21.997Z,100.00
2022-11-20T02:09:49.849Z,100.00
2022-11-20T02:12:35.994Z,100.00
2022-11-20T02:15:03.725Z,100.00
2022-11-20T02:17:31.524Z,100.00
2022-11-20T02:19:59.284Z,100.00
2022-11-20T02:22:32.579Z,100.00
2022-11-20T02:25:01.193Z,100.00
2022-11-20T02:27:28.900Z,100.00
2022-11-20T02:29:59.922Z,100.00
2022-11-20T02:32:35.112Z,100.00
2022-11-20T02:35:32.490Z,100.00
2022-11-20T02:38:01.461Z,100.00
2022-11-20T02:40:29.336Z,100.00
2022-11-20T02:42:57.658Z,100.00
2022-11-20T02:45:25.783Z,100.00
2022-11-20T02:47:53.574Z,100.00
2022-11-20T02:50:21.403Z,100.00
2022-11-20T02:52:49.275Z,100.00
2022-11-20T02:55:17.159Z,100.00
2022-11-20T02:57:44.992Z,100.00
2022-11-20T03:00:13.413Z,100.00
2022-11-20T03:02:41.144Z,100.00
2022-11-20T03:05:08.944Z,100.00
2022-11-20T03:07:36.727Z,100.00
2022-11-20T03:10:05.378Z,100.00
2022-11-20T03:12:33.142Z,100.00
2022-11-20T03:15:00.941Z,100.00
2022-11-20T03:17:28.715Z,100.00
2022-11-20T03:19:56.433Z,100.00
2022-11-20T03:22:24.166Z,100.00
2022-11-20T03:24:51.924Z,100.00
2022-11-20T03:27:19.689Z,100.00
2022-11-20T03:29:47.424Z,100.00
2022-11-20T03:32:15.194Z,100.00
2022-11-20T03:34:42.898Z,100.00
2022-11-20T03:37:10.595Z,100.00
2022-11-20T03:39:38.379Z,100.00
2022-11-20T03:42:26.187Z,100.00
2022-11-20T03:44:53.971Z,100.00
2022-11-20T03:47:21.755Z,100.00
2022-11-20T03:49:49.521Z,100.00
2022-11-20T03:52:17.236Z,100.00
2022-11-20T03:54:45.101Z,100.00
2022-11-20T03:57:12.822Z,100.00
2022-11-20T03:59:40.625Z,100.00
2022-11-20T04:02:08.499Z,100.00
2022-11-20T04:04:36.515Z,100.00
2022-11-20T04:07:04.435Z,100.00
2022-11-20T04:09:32.241Z,100.00
2022-11-20T04:11:59.945Z,100.00
2022-11-20T04:14:27.709Z,100.00
2022-11-20T04:16:55.538Z,100.00
2022-11-20T04:19:23.549Z,100.00
2022-11-20T04:21:51.423Z,99.75
2022-11-20T04:24:19.237Z,100.00
2022-11-20T04:26:47.165Z,100.00
2022-11-20T04:29:15.065Z,100.00
2022-11-20T04:31:42.835Z,99.64
2022-11-20T04:34:13.610Z,100.00
2022-11-20T04:36:41.313Z,100.00
2022-11-20T04:39:09.152Z,100.00
2022-11-20T04:41:37.679Z,100.00
2022-11-20T04:44:06.550Z,100.00
2022-11-20T04:46:39.821Z,100.00
2022-11-20T04:49:08.139Z,100.00
2022-11-20T04:51:36.029Z,100.00
2022-11-20T04:54:03.883Z,100.00
2022-11-20T04:56:31.731Z,100.00
2022-11-20T04:59:02.954Z,100.00
2022-11-20T05:01:30.971Z,100.00
2022-11-20T05:03:58.820Z,100.00
2022-11-20T05:06:26.533Z,100.00
2022-11-20T05:08:54.273Z,100.00
2022-11-20T05:11:22.530Z,100.00
2022-11-20T05:13:51.000Z,99.88
2022-11-20T05:16:20.641Z,100.00
2022-11-20T05:18:48.809Z,98.80
2022-11-20T05:21:16.621Z,99.86
2022-11-20T05:23:44.548Z,99.89
2022-11-20T05:26:26.150Z,99.81
2022-11-20T05:28:53.960Z,100.00
2022-11-20T05:31:28.017Z,99.84
2022-11-20T05:33:56.348Z,100.00
2022-11-20T05:36:24.127Z,99.61
2022-11-20T05:38:54.446Z,99.64
2022-11-20T05:41:24.587Z,100.00
2022-11-20T05:43:52.649Z,100.00
2022-11-20T05:46:27.699Z,100.00
2022-11-20T05:48:55.942Z,100.00
2022-11-20T05:51:23.690Z,100.00
2022-11-20T05:53:51.498Z,100.00
2022-11-20T05:56:20.665Z,100.00
2022-11-20T05:58:48.784Z,100.00
2022-11-20T06:01:20.233Z,99.91
2022-11-20T06:03:49.512Z,99.25
2022-11-20T06:06:17.461Z,99.85
2022-11-20T06:08:45.889Z,99.21
2022-11-20T06:11:14.683Z,99.36
2022-11-20T06:13:43.338Z,99.19
2022-11-20T06:16:11.700Z,98.39
2022-11-20T06:18:39.623Z,97.76
2022-11-20T06:21:17.768Z,97.25
2022-11-20T06:23:46.162Z,96.30
2022-11-20T06:26:18.675Z,97.76
2022-11-20T06:28:46.527Z,97.92
2022-11-20T06:31:15.810Z,97.64
2022-11-20T06:33:44.287Z,97.61
2022-11-20T06:36:12.963Z,96.91
2022-11-20T06:38:41.067Z,98.06
2022-11-20T06:41:17.473Z,99.13
2022-11-20T06:43:45.375Z,99.26
2022-11-20T06:46:13.989Z,98.10
2022-11-20T06:48:42.163Z,99.62
2022-11-20T06:51:09.951Z,99.12
2022-11-20T06:53:38.101Z,99.71
2022-11-20T06:56:06.123Z,98.64
2022-11-20T06:58:35.016Z,100.00
2022-11-20T07:01:03.934Z,99.82
2022-11-20T07:03:32.108Z,98.74
2022-11-20T07:06:00.265Z,99.28
2022-11-20T07:08:28.140Z,99.58
2022-11-20T07:10:59.713Z,100.00
2022-11-20T07:13:28.367Z,98.70
2022-11-20T07:15:56.371Z,99.14
2022-11-20T07:18:24.108Z,98.44
2022-11-20T07:20:51.805Z,99.65
2022-11-20T07:23:19.636Z,99.17
2022-11-20T07:25:47.475Z,99.84
2022-11-20T07:28:15.903Z,99.63
2022-11-20T07:30:43.647Z,99.75
2022-11-20T07:33:11.399Z,99.41
2022-11-20T07:35:39.094Z,99.52
2022-11-20T07:38:06.879Z,99.36
2022-11-20T07:40:34.689Z,99.56
2022-11-20T07:43:02.469Z,99.76
2022-11-20T07:45:30.312Z,100.00
2022-11-20T07:47:58.124Z,99.80
2022-11-20T07:50:25.982Z,100.00
2022-11-20T07:52:54.555Z,99.29
2022-11-20T07:55:22.266Z,99.21
2022-11-20T07:57:57.111Z,97.82
2022-11-20T08:00:25.134Z,97.70
2022-11-20T08:02:52.984Z,96.29
2022-11-20T08:05:20.794Z,96.93
2022-11-20T08:07:48.758Z,97.16
2022-11-20T08:10:18.024Z,95.82
2022-11-20T08:13:08.380Z,95.62
2022-11-20T08:15:36.290Z,94.35
2022-11-20T08:20:53.450Z,92.57
2022-11-20T08:23:21.163Z,90.53
2022-11-20T08:25:51.433Z,90.19
2022-11-20T08:28:21.765Z,90.02
2022-11-20T08:30:50.073Z,90.33
2022-11-20T08:33:19.472Z,90.11
2022-11-20T08:35:47.458Z,90.43
2022-11-20T08:38:15.186Z,91.95
2022-11-20T08:40:42.962Z,88.52
2022-11-20T08:43:10.734Z,90.52
2022-11-20T08:45:38.546Z,91.26
2022-11-20T08:48:06.775Z,91.07
2022-11-20T08:50:37.561Z,88.54
2022-11-20T08:53:08.530Z,86.59
2022-11-20T08:55:39.396Z,88.60
2022-11-20T08:58:07.379Z,88.50
2022-11-20T09:00:35.636Z,87.47
2022-11-20T09:03:03.715Z,87.94
2022-11-20T09:05:31.661Z,88.28
2022-11-20T09:07:59.881Z,89.89
2022-11-20T09:10:28.528Z,88.39
2022-11-20T09:12:57.279Z,88.00
2022-11-20T09:15:25.588Z,86.86
2022-11-20T09:17:57.303Z,87.94
2022-11-20T09:20:25.030Z,88.80
2022-11-20T09:22:52.864Z,88.57
2022-11-20T09:25:20.734Z,88.88
2022-11-20T09:27:49.206Z,88.92
2022-11-20T09:30:17.288Z,88.94
2022-11-20T09:32:45.166Z,89.80
2022-11-20T09:35:13.112Z,88.31
2022-11-20T09:37:40.887Z,88.81
2022-11-20T09:40:09.474Z,89.13
2022-11-20T09:42:54.838Z,88.16
2022-11-20T09:46:12.174Z,87.24
2022-11-20T09:48:48.897Z,80.93
2022-11-20T09:51:40.705Z,79.75
2022-11-20T09:54:14.614Z,79.21
2022-11-20T09:56:44.798Z,80.55
2022-11-20T09:59:35.888Z,81.27
2022-11-20T10:02:04.294Z,79.00
2022-11-20T10:04:35.534Z,80.56
2022-11-20T10:09:56.515Z,80.71
2022-11-20T10:12:37.031Z,79.63
2022-11-20T10:15:16.851Z,76.82
2022-11-20T10:17:53.225Z,79.13
2022-11-20T10:20:26.907Z,76.54
2022-11-20T10:23:13.295Z,77.78
2022-11-20T10:25:49.670Z,79.89
2022-11-20T10:28:57.401Z,77.54
2022-11-20T10:31:31.620Z,76.33
2022-11-20T10:34:19.338Z,78.00
2022-11-20T10:36:52.013Z,78.80
2022-11-20T10:39:31.093Z,76.56
2022-11-20T10:41:58.901Z,77.18
2022-11-20T10:44:53.755Z,74.84
2022-11-20T10:47:23.875Z,76.22
2022-11-20T10:49:54.308Z,77.93
2022-11-20T10:52:36.473Z,79.37
2022-11-20T10:55:27.825Z,75.56
2022-11-20T10:58:16.963Z,75.64
2022-11-20T11:00:44.999Z,77.82
2022-11-20T11:03:28.531Z,78.12
2022-11-20T11:06:10.307Z,76.95
2022-11-20T11:08:42.385Z,78.81
2022-11-20T11:11:26.299Z,83.21
2022-11-20T11:13:54.134Z,77.41
2022-11-20T11:16:26.445Z,77.16
2022-11-20T11:18:54.297Z,77.17
2022-11-20T11:21:26.262Z,77.95
2022-11-20T11:24:19.753Z,78.97
2022-11-20T11:27:13.720Z,78.54
2022-11-20T11:29:44.551Z,79.70
2022-11-20T11:32:25.267Z,79.14
2022-11-20T11:35:07.217Z,78.94
2022-11-20T11:37:39.485Z,79.90
2022-11-20T11:40:24.581Z,78.25
2022-11-20T11:42:56.494Z,78.42
2022-11-20T11:45:24.327Z,81.06
2022-11-20T11:47:53.647Z,81.46
2022-11-20T11:50:26.877Z,83.61
2022-11-20T11:53:09.691Z,82.14
2022-11-20T11:55:59.287Z,83.34
2022-11-20T11:58:45.958Z,82.92
2022-11-20T12:01:39.150Z,83.76
2022-11-20T12:04:18.550Z,82.88
2022-11-20T12:06:48.981Z,83.44
2022-11-20T12:09:16.815Z,83.67
2022-11-20T12:12:10.126Z,82.30
2022-11-20T12:14:42.786Z,82.50
2022-11-20T12:17:13.167Z,83.73
2022-11-20T12:19:41.157Z,82.46
2022-11-20T12:22:34.272Z,82.34
2022-11-20T12:25:18.051Z,82.67
2022-11-20T12:27:47.149Z,83.16
2022-11-20T12:30:18.733Z,82.24
2022-11-20T12:33:23.244Z,82.00
2022-11-20T12:36:19.544Z,80.82
2022-11-20T12:39:35.139Z,82.07
2022-11-20T12:42:46.689Z,80.16
2022-11-20T12:45:36.824Z,79.42
2022-11-20T12:48:16.660Z,75.03
2022-11-20T12:51:15.037Z,77.15
2022-11-20T12:54:02.824Z,76.77
2022-11-20T12:56:48.223Z,76.04
2022-11-20T12:59:53.708Z,77.04
2022-11-20T13:02:58.420Z,76.47
2022-11-20T13:05:38.359Z,76.77
2022-11-20T13:08:06.226Z,76.70
2022-11-20T13:10:54.653Z,78.30
2022-11-20T13:13:37.809Z,76.12
2022-11-20T13:16:25.896Z,75.03
2022-11-20T13:18:53.655Z,76.57
2022-11-20T13:21:47.068Z,77.52
2022-11-20T13:24:21.245Z,75.42
2022-11-20T13:26:49.455Z,73.46
2022-11-20T13:29:20.701Z,75.03
2022-11-20T13:31:49.491Z,76.94
2022-11-20T13:34:28.063Z,76.75
2022-11-20T13:36:57.454Z,75.50
2022-11-20T13:39:36.050Z,75.86
2022-11-20T13:42:18.023Z,76.30
2022-11-20T13:45:10.703Z,77.55
2022-11-20T13:47:38.411Z,78.30
2022-11-20T13:50:07.553Z,78.29
2022-11-20T13:52:53.624Z,78.26
2022-11-20T13:55:32.210Z,77.14
2022-11-20T13:58:15.038Z,75.59
2022-11-20T14:01:12.957Z,77.99
2022-11-20T14:06:35.080Z,75.83
2022-11-20T14:09:03.776Z,75.76
2022-11-20T14:11:33.085Z,77.11
2022-11-20T14:14:06.143Z,78.57
2022-11-20T14:16:40.725Z,77.52
2022-11-20T14:19:50.092Z,77.67
2022-11-20T14:22:23.414Z,79.53
2022-11-20T14:25:17.318Z,79.70
2022-11-20T14:27:47.782Z,79.70
2022-11-20T14:30:25.913Z,80.35
2022-11-20T14:32:55.341Z,79.08
2022-11-20T14:35:30.874Z,79.79
2022-11-20T14:38:01.877Z,79.31
2022-11-20T14:40:37.764Z,80.85
2022-11-20T14:43:41.957Z,80.29
2022-11-20T14:46:10.585Z,79.62
2022-11-20T14:49:02.704Z,80.72
2022-11-20T14:51:36.889Z,81.86
2022-11-20T14:54:12.721Z,81.21
2022-11-20T14:56:40.583Z,82.27
2022-11-20T14:59:09.066Z,82.29
2022-11-20T15:01:36.929Z,82.62
2022-11-20T15:04:07.949Z,81.23
2022-11-20T15:06:35.806Z,80.86
2022-11-20T15:09:06.722Z,81.43
2022-11-20T15:11:35.781Z,81.58
2022-11-20T15:14:05.571Z,81.32
2022-11-20T15:16:33.607Z,82.40
2022-11-20T15:19:01.912Z,83.66
2022-11-20T15:21:29.808Z,83.55
2022-11-20T15:23:57.628Z,84.10
2022-11-20T15:26:29.323Z,82.52
2022-11-20T15:28:57.162Z,84.53
2022-11-20T15:31:25.472Z,84.78
2022-11-20T15:33:53.348Z,82.00
2022-11-20T15:36:21.151Z,81.85
2022-11-20T15:38:48.940Z,82.36
2022-11-20T15:41:16.860Z,83.27
2022-11-20T15:43:44.737Z,85.74
2022-11-20T15:46:15.229Z,86.33
2022-11-20T15:48:48.569Z,86.04
2022-11-20T15:51:31.465Z,88.22
2022-11-20T15:53:59.509Z,87.53
2022-11-20T15:56:27.483Z,87.48
2022-11-20T15:58:55.389Z,86.98
2022-11-20T16:01:23.940Z,87.12
2022-11-20T16:03:51.883Z,89.16
2022-11-20T16:06:19.745Z,91.07
2022-11-20T16:08:47.698Z,89.71
2022-11-20T16:11:16.428Z,90.69
2022-11-20T16:14:02.847Z,89.84
2022-11-20T16:16:32.227Z,89.32
2022-11-20T16:19:00.152Z,89.34
2022-11-20T16:21:33.193Z,90.19
2022-11-20T16:24:02.111Z,90.97
2022-11-20T16:26:30.133Z,91.69
2022-11-20T16:28:58.041Z,90.40
2022-11-20T16:31:26.019Z,91.50
2022-11-20T16:33:54.767Z,92.01
2022-11-20T16:36:23.541Z,91.45
2022-11-20T16:38:55.508Z,91.72
2022-11-20T16:41:23.885Z,92.76
2022-11-20T16:43:52.999Z,92.49
2022-11-20T16:46:22.518Z,93.46
2022-11-20T16:49:03.661Z,94.20
2022-11-20T16:51:32.897Z,90.66
2022-11-20T16:54:05.064Z,91.18
2022-11-20T16:56:32.901Z,91.95
2022-11-20T16:59:00.961Z,93.37
2022-11-20T17:01:29.867Z,91.66
2022-11-20T17:03:59.727Z,90.65
2022-11-20T17:06:30.056Z,93.03
2022-11-20T17:08:58.425Z,91.91
2022-11-20T17:11:26.589Z,92.25
2022-11-20T17:13:56.241Z,91.89
2022-11-20T17:16:25.076Z,91.80
2022-11-20T17:18:52.922Z,92.34
2022-11-20T17:21:20.842Z,92.75
2022-11-20T17:23:48.805Z,92.28
2022-11-20T17:26:21.111Z,92.31
2022-11-20T17:29:02.384Z,92.24
2022-11-20T17:31:30.942Z,92.75
2022-11-20T17:34:00.978Z,92.32
2022-11-20T17:36:29.027Z,92.15
2022-11-20T17:38:56.831Z,93.64
2022-11-20T17:41:26.541Z,93.05
2022-11-20T17:43:55.636Z,93.45
2022-11-20T17:46:27.413Z,93.56
2022-11-20T17:48:55.778Z,93.95
2022-11-20T17:51:25.200Z,93.89
2022-11-20T17:53:54.491Z,95.01
2022-11-20T17:56:40.935Z,95.18
2022-11-20T17:59:09.786Z,95.77
2022-11-20T18:01:37.677Z,96.17
2022-11-20T18:04:05.542Z,96.59
2022-11-20T18:06:33.578Z,97.10
2022-11-20T18:09:02.167Z,96.11
2022-11-20T18:11:31.620Z,97.00
2022-11-20T18:14:18.627Z,97.65
2022-11-20T18:16:51.071Z,97.47
2022-11-20T18:19:23.552Z,96.87
2022-11-20T18:21:51.381Z,98.58
2022-11-20T18:24:19.230Z,98.05
2022-11-20T18:26:47.141Z,96.31
2022-11-20T18:29:15.045Z,97.03
2022-11-20T18:31:42.908Z,97.81
2022-11-20T18:34:13.379Z,97.64
2022-11-20T18:36:41.238Z,99.42
2022-11-20T18:39:08.970Z,98.09
2022-11-20T18:41:55.214Z,97.58
2022-11-20T18:44:46.952Z,97.42
2022-11-20T18:47:17.161Z,98.02
2022-11-20T18:49:47.390Z,98.58
2022-11-20T18:52:15.316Z,97.98
2022-11-20T18:54:43.231Z,98.57
2022-11-20T18:57:15.628Z,98.24
2022-11-20T18:59:46.331Z,97.98
2022-11-20T19:02:21.245Z,97.47
2022-11-20T19:04:49.275Z,98.06
2022-11-20T19:07:17.139Z,98.09
2022-11-20T19:09:46.243Z,98.37
2022-11-20T19:12:14.274Z,98.73
2022-11-20T19:14:42.168Z,98.42
2022-11-20T19:17:12.191Z,97.98
2022-11-20T19:19:40.063Z,96.94
2022-11-20T19:22:09.190Z,97.48
2022-11-20T19:24:37.007Z,95.49
2022-11-20T19:27:04.948Z,94.28
2022-11-20T19:29:32.858Z,94.66
2022-11-20T19:32:01.826Z,95.14
2022-11-20T19:34:29.854Z,97.01
2022-11-20T19:36:57.832Z,98.51
2022-11-20T19:39:25.911Z,99.77
2022-11-20T19:41:54.018Z,97.44
2022-11-20T19:44:22.134Z,100.00
2022-11-20T19:46:52.163Z,100.00
2022-11-20T19:49:19.975Z,100.00
2022-11-20T19:51:49.605Z,100.00
2022-11-20T19:54:17.997Z,100.00
2022-11-20T19:56:46.780Z,100.00
2022-11-20T19:59:15.402Z,100.00
2022-11-20T20:01:43.763Z,100.00
2022-11-20T20:04:11.888Z,100.00
2022-11-20T20:06:41.046Z,100.00
2022-11-20T20:09:14.667Z,100.00
2022-11-20T20:11:45.745Z,100.00
2022-11-20T20:14:20.228Z,100.00
2022-11-20T20:16:48.156Z,100.00
2022-11-20T20:19:16.660Z,100.00
2022-11-20T20:21:45.098Z,100.00
2022-11-20T20:24:13.092Z,100.00
2022-11-20T20:26:41.253Z,100.00
2022-11-20T20:29:09.199Z,100.00
2022-11-20T20:31:37.153Z,100.00
2022-11-20T20:34:06.532Z,100.00
2022-11-20T20:36:34.507Z,100.00
2022-11-20T20:39:04.018Z,100.00
2022-11-20T20:41:32.272Z,100.00
2022-11-20T20:44:26.074Z,100.00
2022-11-20T20:46:54.504Z,100.00
2022-11-20T20:49:22.506Z,100.00
2022-11-20T20:51:50.558Z,100.00
2022-11-20T20:54:18.393Z,100.00
2022-11-20T20:56:46.282Z,100.00
2022-11-20T20:59:14.137Z,100.00
2022-11-20T21:01:41.889Z,100.00
2022-11-20T21:04:09.808Z,100.00
2022-11-20T21:06:37.750Z,100.00
2022-11-20T21:09:05.626Z,100.00
2022-11-20T21:11:33.402Z,100.00
2022-11-20T21:14:01.299Z,100.00
2022-11-20T21:16:41.982Z,100.00
2022-11-20T21:19:09.970Z,100.00
2022-11-20T21:21:56.411Z,100.00
2022-11-20T21:24:24.446Z,100.00
2022-11-20T21:26:53.413Z,100.00
2022-11-20T21:29:22.137Z,100.00
2022-11-20T21:31:50.274Z,100.00
2022-11-20T21:34:18.387Z,100.00
2022-11-20T21:36:46.405Z,100.00
2022-11-20T21:39:14.693Z,100.00
2022-11-20T21:41:42.565Z,100.00
2022-11-20T21:44:41.591Z,100.00
2022-11-20T21:47:02.871Z,100.00
2022-11-20T21:49:30.722Z,100.00
2022-11-20T21:52:00.954Z,100.00
2022-11-20T21:54:28.811Z,100.00
2022-11-20T21:56:56.640Z,100.00
2022-11-20T21:59:24.838Z,100.00
2022-11-20T22:01:52.740Z,100.00
2022-11-20T22:04:21.373Z,100.00
2022-11-20T22:06:49.875Z,100.00
2022-11-20T22:09:18.018Z,100.00
2022-11-20T22:11:45.843Z,100.00
2022-11-20T22:14:23.500Z,100.00
2022-11-20T22:16:52.810Z,100.00
2022-11-20T22:19:21.730Z,100.00
2022-11-20T22:21:49.769Z,100.00
2022-11-20T22:24:18.683Z,100.00
2022-11-20T22:26:46.521Z,100.00
2022-11-20T22:29:19.217Z,100.00
2022-11-20T22:31:47.200Z,100.00
2022-11-20T22:34:15.129Z,100.00
2022-11-20T22:36:43.163Z,100.00
2022-11-20T22:39:11.069Z,100.00
2022-11-20T22:41:38.831Z,100.00
2022-11-20T22:44:09.319Z,100.00
2022-11-20T22:46:37.801Z,100.00
2022-11-20T22:49:07.324Z,100.00
2022-11-20T22:51:36.739Z,100.00
2022-11-20T22:54:04.889Z,100.00
2022-11-20T22:56:32.679Z,100.00
2022-11-20T22:59:00.430Z,100.00
2022-11-20T23:01:29.755Z,100.00
2022-11-20T23:04:02.369Z,100.00
2022-11-20T23:06:30.285Z,100.00
2022-11-20T23:08:58.114Z,100.00
2022-11-20T23:11:27.553Z,100.00
2022-11-20T23:13:58.696Z,100.00
2022-11-20T23:16:28.205Z,100.00
2022-11-20T23:19:00.706Z,100.00
2022-11-20T23:21:28.615Z,100.00
2022-11-20T23:23:57.420Z,100.00
2022-11-20T23:26:28.049Z,100.00
2022-11-20T23:28:57.622Z,100.00
2022-11-20T23:31:25.794Z,100.00
2022-11-20T23:33:53.781Z,100.00
2022-11-20T23:36:21.612Z,100.00
2022-11-20T23:38:49.508Z,100.00
2022-11-20T23:41:17.935Z,100.00
2022-11-20T23:43:45.728Z,100.00
2022-11-20T23:46:16.459Z,100.00
2022-11-20T23:48:45.919Z,100.00
2022-11-20T23:51:13.942Z,100.00
2022-11-20T23:53:41.922Z,100.00
2022-11-20T23:56:09.737Z,100.00
2022-11-20T23:58:38.420Z,100.00
